sensor_id;sensor_type;location;lat;lon;timestamp;P1;durP1;ratioP1;P2;durP2;ratioP2
39882;SDS011;55824;52.220;21.040;2023-05-19T00:01:23;1.77;;;1.27;;
39882;SDS011;55824;52.220;21.040;2023-05-19T00:03:49;2.17;;;1.45;;
39882;SDS011;55824;52.220;21.040;2023-05-19T00:06:22;3.58;;;1.50;;
39882;SDS011;55824;52.220;21.040;2023-05-19T00:08:49;1.90;;;1.17;;
39882;SDS011;55824;52.220;21.040;2023-05-19T00:11:15;2.17;;;1.40;;
39882;SDS011;55824;52.220;21.040;2023-05-19T00:13:41;1.40;;;1.05;;
39882;SDS011;55824;52.220;21.040;2023-05-19T00:16:09;3.25;;;1.55;;
39882;SDS011;55824;52.220;21.040;2023-05-19T00:18:35;3.15;;;1.50;;
39882;SDS011;55824;52.220;21.040;2023-05-19T00:21:01;1.65;;;1.40;;
39882;SDS011;55824;52.220;21.040;2023-05-19T00:23:27;2.50;;;1.40;;
39882;SDS011;55824;52.220;21.040;2023-05-19T00:25:53;1.80;;;1.23;;
39882;SDS011;55824;52.220;21.040;2023-05-19T00:28:19;2.33;;;1.52;;
39882;SDS011;55824;52.220;21.040;2023-05-19T00:30:45;1.98;;;1.23;;
39882;SDS011;55824;52.220;21.040;2023-05-19T00:33:11;1.98;;;1.17;;
39882;SDS011;55824;52.220;21.040;2023-05-19T00:35:37;1.85;;;1.30;;
39882;SDS011;55824;52.220;21.040;2023-05-19T00:38:04;1.48;;;1.30;;
39882;SDS011;55824;52.220;21.040;2023-05-19T00:40:30;2.17;;;1.50;;
39882;SDS011;55824;52.220;21.040;2023-05-19T00:42:57;1.55;;;1.17;;
39882;SDS011;55824;52.220;21.040;2023-05-19T00:45:23;1.65;;;1.13;;
39882;SDS011;55824;52.220;21.040;2023-05-19T00:47:49;1.80;;;1.20;;
39882;SDS011;55824;52.220;21.040;2023-05-19T00:50:15;1.92;;;1.20;;
39882;SDS011;55824;52.220;21.040;2023-05-19T00:52:41;2.33;;;1.30;;
39882;SDS011;55824;52.220;21.040;2023-05-19T00:55:07;1.75;;;1.20;;
39882;SDS011;55824;52.220;21.040;2023-05-19T00:57:34;2.25;;;1.27;;
39882;SDS011;55824;52.220;21.040;2023-05-19T01:00:02;1.48;;;1.08;;
39882;SDS011;55824;52.220;21.040;2023-05-19T01:02:28;1.80;;;1.20;;
39882;SDS011;55824;52.220;21.040;2023-05-19T01:04:55;1.63;;;1.23;;
39882;SDS011;55824;52.220;21.040;2023-05-19T01:07:21;1.50;;;1.30;;
39882;SDS011;55824;52.220;21.040;2023-05-19T01:09:49;2.38;;;1.27;;
39882;SDS011;55824;52.220;21.040;2023-05-19T01:12:15;1.60;;;1.15;;
39882;SDS011;55824;52.220;21.040;2023-05-19T01:14:41;2.58;;;1.33;;
39882;SDS011;55824;52.220;21.040;2023-05-19T01:17:18;2.65;;;1.25;;
39882;SDS011;55824;52.220;21.040;2023-05-19T01:19:58;1.65;;;1.00;;
39882;SDS011;55824;52.220;21.040;2023-05-19T01:27:38;1.48;;;1.20;;
39882;SDS011;55824;52.220;21.040;2023-05-19T01:32:35;2.28;;;1.35;;
39882;SDS011;55824;52.220;21.040;2023-05-19T01:35:03;2.13;;;1.20;;
39882;SDS011;55824;52.220;21.040;2023-05-19T01:37:30;2.08;;;1.27;;
39882;SDS011;55824;52.220;21.040;2023-05-19T01:39:56;1.60;;;1.10;;
39882;SDS011;55824;52.220;21.040;2023-05-19T01:42:22;1.70;;;1.15;;
39882;SDS011;55824;52.220;21.040;2023-05-19T01:44:49;1.73;;;1.17;;
39882;SDS011;55824;52.220;21.040;2023-05-19T01:47:15;1.85;;;1.13;;
39882;SDS011;55824;52.220;21.040;2023-05-19T01:49:42;2.20;;;1.30;;
39882;SDS011;55824;52.220;21.040;2023-05-19T01:52:08;2.63;;;1.33;;
39882;SDS011;55824;52.220;21.040;2023-05-19T01:54:34;2.67;;;1.35;;
39882;SDS011;55824;52.220;21.040;2023-05-19T01:57:08;1.17;;;1.08;;
39882;SDS011;55824;52.220;21.040;2023-05-19T01:59:51;1.67;;;1.25;;
39882;SDS011;55824;52.220;21.040;2023-05-19T02:02:25;1.50;;;1.20;;
39882;SDS011;55824;52.220;21.040;2023-05-19T02:04:58;2.38;;;1.25;;
39882;SDS011;55824;52.220;21.040;2023-05-19T02:07:47;1.45;;;1.00;;
39882;SDS011;55824;52.220;21.040;2023-05-19T02:10:22;1.83;;;1.08;;
39882;SDS011;55824;52.220;21.040;2023-05-19T02:12:51;2.38;;;1.30;;
39882;SDS011;55824;52.220;21.040;2023-05-19T02:15:23;3.67;;;1.30;;
39882;SDS011;55824;52.220;21.040;2023-05-19T02:17:51;1.00;;;0.90;;
39882;SDS011;55824;52.220;21.040;2023-05-19T02:20:18;2.85;;;1.05;;
39882;SDS011;55824;52.220;21.040;2023-05-19T02:22:46;1.85;;;1.15;;
39882;SDS011;55824;52.220;21.040;2023-05-19T02:25:12;2.15;;;1.10;;
39882;SDS011;55824;52.220;21.040;2023-05-19T02:27:38;1.88;;;1.20;;
39882;SDS011;55824;52.220;21.040;2023-05-19T02:30:05;2.85;;;1.50;;
39882;SDS011;55824;52.220;21.040;2023-05-19T02:32:32;2.38;;;1.38;;
39882;SDS011;55824;52.220;21.040;2023-05-19T02:34:58;1.75;;;1.08;;
39882;SDS011;55824;52.220;21.040;2023-05-19T02:37:24;2.60;;;1.50;;
39882;SDS011;55824;52.220;21.040;2023-05-19T02:39:52;1.98;;;1.10;;
39882;SDS011;55824;52.220;21.040;2023-05-19T02:42:18;1.10;;;1.00;;
39882;SDS011;55824;52.220;21.040;2023-05-19T02:44:44;1.77;;;1.20;;
39882;SDS011;55824;52.220;21.040;2023-05-19T02:47:10;1.45;;;1.13;;
39882;SDS011;55824;52.220;21.040;2023-05-19T02:49:36;1.30;;;1.08;;
39882;SDS011;55824;52.220;21.040;2023-05-19T02:52:02;2.83;;;1.30;;
39882;SDS011;55824;52.220;21.040;2023-05-19T02:54:29;1.60;;;1.17;;
39882;SDS011;55824;52.220;21.040;2023-05-19T02:56:55;2.53;;;1.48;;
39882;SDS011;55824;52.220;21.040;2023-05-19T02:59:21;1.52;;;1.20;;
39882;SDS011;55824;52.220;21.040;2023-05-19T03:01:47;1.35;;;1.10;;
39882;SDS011;55824;52.220;21.040;2023-05-19T03:04:13;1.95;;;1.30;;
39882;SDS011;55824;52.220;21.040;2023-05-19T03:06:39;1.58;;;1.20;;
39882;SDS011;55824;52.220;21.040;2023-05-19T03:09:06;1.92;;;1.10;;
39882;SDS011;55824;52.220;21.040;2023-05-19T03:11:32;2.15;;;1.33;;
39882;SDS011;55824;52.220;21.040;2023-05-19T03:13:58;2.00;;;1.38;;
39882;SDS011;55824;52.220;21.040;2023-05-19T03:16:24;1.90;;;1.13;;
39882;SDS011;55824;52.220;21.040;2023-05-19T03:18:51;1.27;;;1.17;;
39882;SDS011;55824;52.220;21.040;2023-05-19T03:21:19;1.83;;;1.30;;
39882;SDS011;55824;52.220;21.040;2023-05-19T03:23:45;2.63;;;1.23;;
39882;SDS011;55824;52.220;21.040;2023-05-19T03:26:11;1.50;;;1.10;;
39882;SDS011;55824;52.220;21.040;2023-05-19T03:28:37;2.85;;;1.45;;
39882;SDS011;55824;52.220;21.040;2023-05-19T03:31:03;1.40;;;1.10;;
39882;SDS011;55824;52.220;21.040;2023-05-19T03:33:29;3.45;;;1.25;;
39882;SDS011;55824;52.220;21.040;2023-05-19T03:35:55;1.80;;;1.20;;
39882;SDS011;55824;52.220;21.040;2023-05-19T03:38:22;2.05;;;1.30;;
39882;SDS011;55824;52.220;21.040;2023-05-19T03:40:48;1.52;;;1.40;;
39882;SDS011;55824;52.220;21.040;2023-05-19T03:43:13;1.75;;;1.42;;
39882;SDS011;55824;52.220;21.040;2023-05-19T03:45:42;3.15;;;1.50;;
39882;SDS011;55824;52.220;21.040;2023-05-19T03:48:08;3.42;;;1.38;;
39882;SDS011;55824;52.220;21.040;2023-05-19T03:50:34;2.78;;;1.40;;
39882;SDS011;55824;52.220;21.040;2023-05-19T03:53:02;2.58;;;1.40;;
39882;SDS011;55824;52.220;21.040;2023-05-19T03:55:28;1.50;;;1.23;;
39882;SDS011;55824;52.220;21.040;2023-05-19T03:57:54;1.90;;;1.20;;
39882;SDS011;55824;52.220;21.040;2023-05-19T04:00:21;2.10;;;1.30;;
39882;SDS011;55824;52.220;21.040;2023-05-19T04:02:47;2.95;;;1.73;;
39882;SDS011;55824;52.220;21.040;2023-05-19T04:05:13;2.45;;;1.50;;
39882;SDS011;55824;52.220;21.040;2023-05-19T04:07:39;1.73;;;1.27;;
39882;SDS011;55824;52.220;21.040;2023-05-19T04:10:06;1.73;;;1.20;;
39882;SDS011;55824;52.220;21.040;2023-05-19T04:12:32;2.42;;;1.25;;
39882;SDS011;55824;52.220;21.040;2023-05-19T04:14:58;3.20;;;1.35;;
39882;SDS011;55824;52.220;21.040;2023-05-19T04:17:25;1.88;;;1.27;;
39882;SDS011;55824;52.220;21.040;2023-05-19T04:19:52;2.67;;;1.63;;
39882;SDS011;55824;52.220;21.040;2023-05-19T04:22:18;2.65;;;1.42;;
39882;SDS011;55824;52.220;21.040;2023-05-19T04:24:43;2.78;;;1.30;;
39882;SDS011;55824;52.220;21.040;2023-05-19T04:27:10;4.50;;;1.27;;
39882;SDS011;55824;52.220;21.040;2023-05-19T04:29:37;1.88;;;1.45;;
39882;SDS011;55824;52.220;21.040;2023-05-19T04:32:04;2.58;;;1.58;;
39882;SDS011;55824;52.220;21.040;2023-05-19T04:34:32;2.30;;;1.40;;
39882;SDS011;55824;52.220;21.040;2023-05-19T04:36:59;1.85;;;1.40;;
39882;SDS011;55824;52.220;21.040;2023-05-19T04:39:25;2.47;;;1.38;;
39882;SDS011;55824;52.220;21.040;2023-05-19T04:41:51;2.75;;;1.38;;
39882;SDS011;55824;52.220;21.040;2023-05-19T04:44:18;4.38;;;1.85;;
39882;SDS011;55824;52.220;21.040;2023-05-19T04:46:44;3.35;;;1.50;;
39882;SDS011;55824;52.220;21.040;2023-05-19T04:49:10;1.73;;;1.30;;
39882;SDS011;55824;52.220;21.040;2023-05-19T04:51:36;1.90;;;1.48;;
39882;SDS011;55824;52.220;21.040;2023-05-19T04:54:05;2.13;;;1.30;;
39882;SDS011;55824;52.220;21.040;2023-05-19T04:56:31;3.63;;;1.85;;
39882;SDS011;55824;52.220;21.040;2023-05-19T04:58:57;2.35;;;1.90;;
39882;SDS011;55824;52.220;21.040;2023-05-19T05:01:23;1.92;;;1.35;;
39882;SDS011;55824;52.220;21.040;2023-05-19T05:03:50;1.65;;;1.40;;
39882;SDS011;55824;52.220;21.040;2023-05-19T05:06:19;1.92;;;1.42;;
39882;SDS011;55824;52.220;21.040;2023-05-19T05:08:46;1.75;;;1.20;;
39882;SDS011;55824;52.220;21.040;2023-05-19T05:11:12;2.33;;;1.30;;
39882;SDS011;55824;52.220;21.040;2023-05-19T05:13:38;1.60;;;1.15;;
39882;SDS011;55824;52.220;21.040;2023-05-19T05:16:04;2.55;;;1.40;;
39882;SDS011;55824;52.220;21.040;2023-05-19T05:18:32;3.63;;;1.88;;
39882;SDS011;55824;52.220;21.040;2023-05-19T05:20:58;2.22;;;1.20;;
39882;SDS011;55824;52.220;21.040;2023-05-19T05:23:25;1.65;;;1.23;;
39882;SDS011;55824;52.220;21.040;2023-05-19T05:25:51;1.33;;;1.00;;
39882;SDS011;55824;52.220;21.040;2023-05-19T05:28:17;4.07;;;1.27;;
39882;SDS011;55824;52.220;21.040;2023-05-19T05:30:43;2.38;;;1.40;;
39882;SDS011;55824;52.220;21.040;2023-05-19T05:33:10;2.55;;;1.50;;
39882;SDS011;55824;52.220;21.040;2023-05-19T05:35:36;1.95;;;1.30;;
39882;SDS011;55824;52.220;21.040;2023-05-19T05:38:02;1.80;;;1.20;;
39882;SDS011;55824;52.220;21.040;2023-05-19T05:40:28;2.13;;;1.35;;
39882;SDS011;55824;52.220;21.040;2023-05-19T05:42:55;2.30;;;1.30;;
39882;SDS011;55824;52.220;21.040;2023-05-19T05:45:22;1.63;;;1.33;;
39882;SDS011;55824;52.220;21.040;2023-05-19T05:47:49;2.00;;;1.30;;
39882;SDS011;55824;52.220;21.040;2023-05-19T05:50:15;1.92;;;1.23;;
39882;SDS011;55824;52.220;21.040;2023-05-19T05:52:41;1.42;;;1.25;;
39882;SDS011;55824;52.220;21.040;2023-05-19T05:55:09;1.40;;;1.15;;
39882;SDS011;55824;52.220;21.040;2023-05-19T05:57:35;2.70;;;1.60;;
39882;SDS011;55824;52.220;21.040;2023-05-19T06:00:02;2.63;;;1.33;;
39882;SDS011;55824;52.220;21.040;2023-05-19T06:04:57;2.33;;;1.30;;
39882;SDS011;55824;52.220;21.040;2023-05-19T06:07:23;1.52;;;1.20;;
39882;SDS011;55824;52.220;21.040;2023-05-19T06:09:49;1.77;;;1.20;;
39882;SDS011;55824;52.220;21.040;2023-05-19T06:12:15;2.03;;;1.23;;
39882;SDS011;55824;52.220;21.040;2023-05-19T06:14:41;1.60;;;1.25;;
39882;SDS011;55824;52.220;21.040;2023-05-19T06:17:07;1.42;;;1.10;;
39882;SDS011;55824;52.220;21.040;2023-05-19T06:19:33;2.28;;;1.30;;
39882;SDS011;55824;52.220;21.040;2023-05-19T06:21:59;1.92;;;1.08;;
39882;SDS011;55824;52.220;21.040;2023-05-19T06:24:25;1.35;;;1.10;;
39882;SDS011;55824;52.220;21.040;2023-05-19T06:26:51;1.90;;;1.33;;
39882;SDS011;55824;52.220;21.040;2023-05-19T06:29:17;1.98;;;1.27;;
39882;SDS011;55824;52.220;21.040;2023-05-19T06:31:43;2.13;;;1.35;;
39882;SDS011;55824;52.220;21.040;2023-05-19T06:34:10;1.38;;;1.05;;
39882;SDS011;55824;52.220;21.040;2023-05-19T06:36:38;2.13;;;1.13;;
39882;SDS011;55824;52.220;21.040;2023-05-19T06:39:05;3.75;;;1.10;;
39882;SDS011;55824;52.220;21.040;2023-05-19T06:41:31;1.80;;;1.27;;
39882;SDS011;55824;52.220;21.040;2023-05-19T06:43:57;1.38;;;1.20;;
39882;SDS011;55824;52.220;21.040;2023-05-19T06:46:23;1.77;;;1.13;;
39882;SDS011;55824;52.220;21.040;2023-05-19T06:48:49;1.17;;;1.08;;
39882;SDS011;55824;52.220;21.040;2023-05-19T06:51:15;1.95;;;1.35;;
39882;SDS011;55824;52.220;21.040;2023-05-19T06:53:45;1.42;;;1.08;;
39882;SDS011;55824;52.220;21.040;2023-05-19T06:56:11;2.00;;;1.20;;
39882;SDS011;55824;52.220;21.040;2023-05-19T06:58:38;2.90;;;1.30;;
39882;SDS011;55824;52.220;21.040;2023-05-19T07:01:04;1.70;;;1.17;;
39882;SDS011;55824;52.220;21.040;2023-05-19T07:03:30;1.42;;;1.20;;
39882;SDS011;55824;52.220;21.040;2023-05-19T07:05:56;1.95;;;1.30;;
39882;SDS011;55824;52.220;21.040;2023-05-19T07:08:22;1.30;;;1.20;;
39882;SDS011;55824;52.220;21.040;2023-05-19T07:10:48;2.08;;;1.13;;
39882;SDS011;55824;52.220;21.040;2023-05-19T07:13:14;3.17;;;1.27;;
39882;SDS011;55824;52.220;21.040;2023-05-19T07:15:40;2.83;;;1.15;;
39882;SDS011;55824;52.220;21.040;2023-05-19T07:18:06;2.85;;;1.17;;
39882;SDS011;55824;52.220;21.040;2023-05-19T07:20:32;2.30;;;1.10;;
39882;SDS011;55824;52.220;21.040;2023-05-19T07:22:58;1.25;;;0.93;;
39882;SDS011;55824;52.220;21.040;2023-05-19T07:25:26;2.28;;;1.05;;
39882;SDS011;55824;52.220;21.040;2023-05-19T07:27:54;2.67;;;1.20;;
39882;SDS011;55824;52.220;21.040;2023-05-19T07:30:20;2.10;;;1.25;;
39882;SDS011;55824;52.220;21.040;2023-05-19T07:32:46;1.52;;;1.10;;
39882;SDS011;55824;52.220;21.040;2023-05-19T07:35:12;2.08;;;1.30;;
39882;SDS011;55824;52.220;21.040;2023-05-19T07:37:38;1.38;;;1.10;;
39882;SDS011;55824;52.220;21.040;2023-05-19T07:40:04;2.10;;;1.27;;
39882;SDS011;55824;52.220;21.040;2023-05-19T07:42:31;2.83;;;1.33;;
39882;SDS011;55824;52.220;21.040;2023-05-19T07:44:57;1.98;;;1.23;;
39882;SDS011;55824;52.220;21.040;2023-05-19T07:47:23;1.98;;;1.30;;
39882;SDS011;55824;52.220;21.040;2023-05-19T07:49:49;1.75;;;1.20;;
39882;SDS011;55824;52.220;21.040;2023-05-19T07:52:15;1.98;;;1.20;;
39882;SDS011;55824;52.220;21.040;2023-05-19T07:54:42;1.27;;;1.02;;
39882;SDS011;55824;52.220;21.040;2023-05-19T07:57:08;2.65;;;1.38;;
39882;SDS011;55824;52.220;21.040;2023-05-19T07:59:34;2.13;;;1.17;;
39882;SDS011;55824;52.220;21.040;2023-05-19T08:02:00;2.38;;;1.58;;
39882;SDS011;55824;52.220;21.040;2023-05-19T08:04:26;5.15;;;1.50;;
39882;SDS011;55824;52.220;21.040;2023-05-19T08:06:52;3.13;;;1.42;;
39882;SDS011;55824;52.220;21.040;2023-05-19T08:09:19;1.25;;;1.10;;
39882;SDS011;55824;52.220;21.040;2023-05-19T08:11:45;1.60;;;1.23;;
39882;SDS011;55824;52.220;21.040;2023-05-19T08:14:11;2.20;;;1.35;;
39882;SDS011;55824;52.220;21.040;2023-05-19T08:16:37;2.30;;;1.23;;
39882;SDS011;55824;52.220;21.040;2023-05-19T08:19:05;1.77;;;1.45;;
39882;SDS011;55824;52.220;21.040;2023-05-19T08:21:31;1.38;;;1.10;;
39882;SDS011;55824;52.220;21.040;2023-05-19T08:23:58;2.63;;;1.40;;
39882;SDS011;55824;52.220;21.040;2023-05-19T08:26:25;2.88;;;1.60;;
39882;SDS011;55824;52.220;21.040;2023-05-19T08:28:51;3.90;;;1.55;;
39882;SDS011;55824;52.220;21.040;2023-05-19T08:31:17;2.38;;;1.50;;
39882;SDS011;55824;52.220;21.040;2023-05-19T08:33:43;2.55;;;1.40;;
39882;SDS011;55824;52.220;21.040;2023-05-19T08:36:10;3.15;;;1.75;;
39882;SDS011;55824;52.220;21.040;2023-05-19T08:38:36;1.30;;;1.20;;
39882;SDS011;55824;52.220;21.040;2023-05-19T08:41:02;2.45;;;1.35;;
39882;SDS011;55824;52.220;21.040;2023-05-19T08:43:28;4.15;;;1.83;;
39882;SDS011;55824;52.220;21.040;2023-05-19T08:45:54;3.92;;;1.60;;
39882;SDS011;55824;52.220;21.040;2023-05-19T08:48:20;2.50;;;1.30;;
39882;SDS011;55824;52.220;21.040;2023-05-19T08:53:36;2.57;;;1.17;;
39882;SDS011;55824;52.220;21.040;2023-05-19T08:56:04;3.78;;;1.63;;
39882;SDS011;55824;52.220;21.040;2023-05-19T08:58:34;3.33;;;1.42;;
39882;SDS011;55824;52.220;21.040;2023-05-19T09:01:00;3.30;;;1.65;;
39882;SDS011;55824;52.220;21.040;2023-05-19T09:03:28;3.72;;;1.30;;
39882;SDS011;55824;52.220;21.040;2023-05-19T09:05:54;2.63;;;1.42;;
39882;SDS011;55824;52.220;21.040;2023-05-19T09:08:20;3.10;;;1.52;;
39882;SDS011;55824;52.220;21.040;2023-05-19T09:10:46;3.10;;;1.33;;
39882;SDS011;55824;52.220;21.040;2023-05-19T09:13:12;2.10;;;1.50;;
39882;SDS011;55824;52.220;21.040;2023-05-19T09:15:38;2.40;;;1.50;;
39882;SDS011;55824;52.220;21.040;2023-05-19T09:18:06;2.67;;;1.33;;
39882;SDS011;55824;52.220;21.040;2023-05-19T09:20:35;2.33;;;1.50;;
39882;SDS011;55824;52.220;21.040;2023-05-19T09:23:02;1.50;;;1.20;;
39882;SDS011;55824;52.220;21.040;2023-05-19T09:25:28;2.35;;;1.35;;
39882;SDS011;55824;52.220;21.040;2023-05-19T09:27:54;2.00;;;1.42;;
39882;SDS011;55824;52.220;21.040;2023-05-19T09:30:20;3.30;;;2.00;;
39882;SDS011;55824;52.220;21.040;2023-05-19T09:32:46;3.05;;;1.45;;
39882;SDS011;55824;52.220;21.040;2023-05-19T09:35:12;2.40;;;1.50;;
39882;SDS011;55824;52.220;21.040;2023-05-19T09:37:44;3.22;;;1.75;;
39882;SDS011;55824;52.220;21.040;2023-05-19T09:40:12;3.05;;;1.63;;
39882;SDS011;55824;52.220;21.040;2023-05-19T09:42:38;5.03;;;1.73;;
39882;SDS011;55824;52.220;21.040;2023-05-19T09:45:05;2.63;;;1.45;;
39882;SDS011;55824;52.220;21.040;2023-05-19T09:47:32;4.25;;;1.70;;
39882;SDS011;55824;52.220;21.040;2023-05-19T09:49:58;2.22;;;1.50;;
39882;SDS011;55824;52.220;21.040;2023-05-19T09:52:24;3.05;;;1.48;;
39882;SDS011;55824;52.220;21.040;2023-05-19T09:54:51;4.18;;;1.80;;
39882;SDS011;55824;52.220;21.040;2023-05-19T09:57:19;3.00;;;1.65;;
39882;SDS011;55824;52.220;21.040;2023-05-19T09:59:49;2.58;;;1.35;;
39882;SDS011;55824;52.220;21.040;2023-05-19T10:02:16;2.83;;;1.77;;
39882;SDS011;55824;52.220;21.040;2023-05-19T10:04:44;6.63;;;2.08;;
39882;SDS011;55824;52.220;21.040;2023-05-19T10:07:11;3.00;;;1.80;;
39882;SDS011;55824;52.220;21.040;2023-05-19T10:09:38;6.22;;;2.40;;
39882;SDS011;55824;52.220;21.040;2023-05-19T10:12:05;3.00;;;1.48;;
39882;SDS011;55824;52.220;21.040;2023-05-19T10:14:33;5.10;;;1.83;;
39882;SDS011;55824;52.220;21.040;2023-05-19T10:16:59;2.47;;;1.40;;
39882;SDS011;55824;52.220;21.040;2023-05-19T10:19:28;3.55;;;1.98;;
39882;SDS011;55824;52.220;21.040;2023-05-19T10:21:54;2.95;;;1.75;;
39882;SDS011;55824;52.220;21.040;2023-05-19T10:24:20;4.50;;;1.63;;
39882;SDS011;55824;52.220;21.040;2023-05-19T10:26:57;3.17;;;1.88;;
39882;SDS011;55824;52.220;21.040;2023-05-19T10:29:29;3.93;;;2.10;;
39882;SDS011;55824;52.220;21.040;2023-05-19T10:31:59;3.83;;;1.85;;
39882;SDS011;55824;52.220;21.040;2023-05-19T10:34:32;3.40;;;1.90;;
39882;SDS011;55824;52.220;21.040;2023-05-19T10:39:52;3.70;;;1.83;;
39882;SDS011;55824;52.220;21.040;2023-05-19T10:47:14;4.35;;;1.83;;
39882;SDS011;55824;52.220;21.040;2023-05-19T10:49:46;4.07;;;2.20;;
39882;SDS011;55824;52.220;21.040;2023-05-19T10:52:19;5.20;;;2.20;;
39882;SDS011;55824;52.220;21.040;2023-05-19T10:54:45;4.57;;;2.25;;
39882;SDS011;55824;52.220;21.040;2023-05-19T10:57:15;3.83;;;1.83;;
39882;SDS011;55824;52.220;21.040;2023-05-19T10:59:41;2.92;;;1.92;;
39882;SDS011;55824;52.220;21.040;2023-05-19T11:02:10;5.00;;;1.80;;
39882;SDS011;55824;52.220;21.040;2023-05-19T11:04:56;4.70;;;2.08;;
39882;SDS011;55824;52.220;21.040;2023-05-19T11:07:32;3.80;;;1.92;;
39882;SDS011;55824;52.220;21.040;2023-05-19T11:09:58;4.43;;;1.80;;
39882;SDS011;55824;52.220;21.040;2023-05-19T11:12:24;3.67;;;1.70;;
39882;SDS011;55824;52.220;21.040;2023-05-19T11:14:56;3.20;;;2.00;;
39882;SDS011;55824;52.220;21.040;2023-05-19T11:17:23;4.38;;;2.00;;
39882;SDS011;55824;52.220;21.040;2023-05-19T11:19:53;3.65;;;1.75;;
39882;SDS011;55824;52.220;21.040;2023-05-19T11:24:45;3.63;;;1.67;;
39882;SDS011;55824;52.220;21.040;2023-05-19T11:29:42;4.95;;;1.95;;
39882;SDS011;55824;52.220;21.040;2023-05-19T11:32:09;3.72;;;1.90;;
39882;SDS011;55824;52.220;21.040;2023-05-19T11:34:36;4.60;;;2.25;;
39882;SDS011;55824;52.220;21.040;2023-05-19T11:37:05;3.22;;;1.95;;
39882;SDS011;55824;52.220;21.040;2023-05-19T11:39:32;3.50;;;1.90;;
39882;SDS011;55824;52.220;21.040;2023-05-19T11:41:58;5.63;;;2.00;;
39882;SDS011;55824;52.220;21.040;2023-05-19T11:44:24;4.28;;;2.00;;
39882;SDS011;55824;52.220;21.040;2023-05-19T11:46:50;3.70;;;1.83;;
39882;SDS011;55824;52.220;21.040;2023-05-19T11:49:16;3.60;;;1.80;;
39882;SDS011;55824;52.220;21.040;2023-05-19T11:51:43;3.85;;;2.03;;
39882;SDS011;55824;52.220;21.040;2023-05-19T11:54:09;4.30;;;2.08;;
39882;SDS011;55824;52.220;21.040;2023-05-19T11:56:39;4.25;;;1.80;;
39882;SDS011;55824;52.220;21.040;2023-05-19T12:01:31;4.47;;;2.25;;
39882;SDS011;55824;52.220;21.040;2023-05-19T12:03:57;3.08;;;1.73;;
39882;SDS011;55824;52.220;21.040;2023-05-19T12:06:27;4.45;;;2.05;;
39882;SDS011;55824;52.220;21.040;2023-05-19T12:08:53;5.40;;;2.00;;
39882;SDS011;55824;52.220;21.040;2023-05-19T12:11:19;3.45;;;2.10;;
39882;SDS011;55824;52.220;21.040;2023-05-19T12:13:46;4.90;;;2.25;;
39882;SDS011;55824;52.220;21.040;2023-05-19T12:16:12;4.30;;;2.05;;
39882;SDS011;55824;52.220;21.040;2023-05-19T12:18:38;3.70;;;2.05;;
39882;SDS011;55824;52.220;21.040;2023-05-19T12:21:04;4.90;;;2.28;;
39882;SDS011;55824;52.220;21.040;2023-05-19T12:23:31;3.90;;;2.00;;
39882;SDS011;55824;52.220;21.040;2023-05-19T12:25:58;3.35;;;1.92;;
39882;SDS011;55824;52.220;21.040;2023-05-19T12:28:24;3.03;;;2.15;;
39882;SDS011;55824;52.220;21.040;2023-05-19T12:30:51;4.75;;;2.03;;
39882;SDS011;55824;52.220;21.040;2023-05-19T12:33:18;4.38;;;2.17;;
39882;SDS011;55824;52.220;21.040;2023-05-19T12:35:44;3.45;;;2.17;;
39882;SDS011;55824;52.220;21.040;2023-05-19T12:38:12;2.85;;;1.98;;
39882;SDS011;55824;52.220;21.040;2023-05-19T12:40:39;3.35;;;2.22;;
39882;SDS011;55824;52.220;21.040;2023-05-19T12:43:05;2.80;;;1.83;;
39882;SDS011;55824;52.220;21.040;2023-05-19T12:45:34;2.38;;;1.70;;
39882;SDS011;55824;52.220;21.040;2023-05-19T12:48:10;4.30;;;2.33;;
39882;SDS011;55824;52.220;21.040;2023-05-19T12:50:36;3.80;;;2.20;;
39882;SDS011;55824;52.220;21.040;2023-05-19T12:53:02;4.75;;;2.10;;
39882;SDS011;55824;52.220;21.040;2023-05-19T12:55:36;3.30;;;2.10;;
39882;SDS011;55824;52.220;21.040;2023-05-19T12:58:04;3.05;;;1.90;;
39882;SDS011;55824;52.220;21.040;2023-05-19T13:00:30;4.03;;;2.25;;
39882;SDS011;55824;52.220;21.040;2023-05-19T13:05:29;4.00;;;2.10;;
39882;SDS011;55824;52.220;21.040;2023-05-19T13:08:15;4.18;;;2.05;;
39882;SDS011;55824;52.220;21.040;2023-05-19T13:10:41;2.90;;;2.00;;
39882;SDS011;55824;52.220;21.040;2023-05-19T13:13:08;5.35;;;2.42;;
39882;SDS011;55824;52.220;21.040;2023-05-19T13:15:35;4.30;;;2.38;;
39882;SDS011;55824;52.220;21.040;2023-05-19T13:18:05;3.78;;;1.95;;
39882;SDS011;55824;52.220;21.040;2023-05-19T13:20:35;4.50;;;2.30;;
39882;SDS011;55824;52.220;21.040;2023-05-19T13:23:02;4.60;;;2.10;;
39882;SDS011;55824;52.220;21.040;2023-05-19T13:25:29;3.83;;;2.13;;
39882;SDS011;55824;52.220;21.040;2023-05-19T13:27:55;3.13;;;1.85;;
39882;SDS011;55824;52.220;21.040;2023-05-19T13:30:23;3.90;;;2.00;;
39882;SDS011;55824;52.220;21.040;2023-05-19T13:32:49;4.53;;;2.22;;
39882;SDS011;55824;52.220;21.040;2023-05-19T13:35:16;3.15;;;2.13;;
39882;SDS011;55824;52.220;21.040;2023-05-19T13:37:42;4.38;;;2.40;;
39882;SDS011;55824;52.220;21.040;2023-05-19T13:40:08;3.78;;;2.35;;
39882;SDS011;55824;52.220;21.040;2023-05-19T13:42:34;3.45;;;1.92;;
39882;SDS011;55824;52.220;21.040;2023-05-19T13:45:01;3.22;;;2.00;;
39882;SDS011;55824;52.220;21.040;2023-05-19T13:47:28;3.00;;;1.80;;
39882;SDS011;55824;52.220;21.040;2023-05-19T13:49:54;4.22;;;2.33;;
39882;SDS011;55824;52.220;21.040;2023-05-19T13:52:20;3.78;;;2.50;;
39882;SDS011;55824;52.220;21.040;2023-05-19T13:54:47;4.18;;;2.25;;
39882;SDS011;55824;52.220;21.040;2023-05-19T13:57:13;4.50;;;2.13;;
39882;SDS011;55824;52.220;21.040;2023-05-19T13:59:39;2.83;;;1.98;;
39882;SDS011;55824;52.220;21.040;2023-05-19T14:02:06;3.60;;;2.20;;
39882;SDS011;55824;52.220;21.040;2023-05-19T14:04:34;4.75;;;2.33;;
39882;SDS011;55824;52.220;21.040;2023-05-19T14:07:01;3.95;;;1.98;;
39882;SDS011;55824;52.220;21.040;2023-05-19T14:09:28;3.58;;;2.00;;
39882;SDS011;55824;52.220;21.040;2023-05-19T14:11:53;4.72;;;2.53;;
39882;SDS011;55824;52.220;21.040;2023-05-19T14:14:19;3.38;;;1.98;;
39882;SDS011;55824;52.220;21.040;2023-05-19T14:16:45;3.88;;;2.17;;
39882;SDS011;55824;52.220;21.040;2023-05-19T14:19:11;3.90;;;2.30;;
39882;SDS011;55824;52.220;21.040;2023-05-19T14:21:38;4.57;;;2.17;;
39882;SDS011;55824;52.220;21.040;2023-05-19T14:24:04;3.45;;;2.00;;
39882;SDS011;55824;52.220;21.040;2023-05-19T14:26:30;4.32;;;2.22;;
39882;SDS011;55824;52.220;21.040;2023-05-19T14:28:56;3.83;;;1.92;;
39882;SDS011;55824;52.220;21.040;2023-05-19T14:31:23;4.68;;;2.20;;
39882;SDS011;55824;52.220;21.040;2023-05-19T14:33:49;4.10;;;2.28;;
39882;SDS011;55824;52.220;21.040;2023-05-19T14:36:15;3.53;;;2.03;;
39882;SDS011;55824;52.220;21.040;2023-05-19T14:38:41;4.22;;;2.70;;
39882;SDS011;55824;52.220;21.040;2023-05-19T14:41:07;3.72;;;2.40;;
39882;SDS011;55824;52.220;21.040;2023-05-19T14:43:33;3.45;;;2.25;;
39882;SDS011;55824;52.220;21.040;2023-05-19T14:46:00;2.88;;;1.92;;
39882;SDS011;55824;52.220;21.040;2023-05-19T14:48:25;5.03;;;2.40;;
39882;SDS011;55824;52.220;21.040;2023-05-19T14:50:52;4.95;;;2.08;;
39882;SDS011;55824;52.220;21.040;2023-05-19T14:53:18;2.95;;;2.03;;
39882;SDS011;55824;52.220;21.040;2023-05-19T14:55:46;3.40;;;1.88;;
39882;SDS011;55824;52.220;21.040;2023-05-19T14:58:13;3.67;;;2.40;;
39882;SDS011;55824;52.220;21.040;2023-05-19T15:00:40;2.53;;;1.83;;
39882;SDS011;55824;52.220;21.040;2023-05-19T15:03:07;4.30;;;2.25;;